createdAt,value
2023-04-01T00:01:30.066Z,14.07
2023-04-01T00:03:58.951Z,13.75
2023-04-01T00:06:27.993Z,10.70
2023-04-01T00:08:56.857Z,11.98
2023-04-01T00:11:27.608Z,12.98
2023-04-01T00:13:56.620Z,11.65
2023-04-01T00:16:25.756Z,13.00
2023-04-01T00:18:55.923Z,10.68
2023-04-01T00:21:25.009Z,10.93
2023-04-01T00:23:53.889Z,13.35
2023-04-01T00:26:23.472Z,13.30
2023-04-01T00:28:52.950Z,12.70
2023-04-01T00:31:22.269Z,13.88
2023-04-01T00:33:51.673Z,13.50
2023-04-01T00:36:24.421Z,13.82
2023-04-01T00:38:53.729Z,12.20
2023-04-01T00:41:22.939Z,12.27
2023-04-01T00:43:53.844Z,11.90
2023-04-01T00:46:23.021Z,11.88
2023-04-01T00:48:57.219Z,12.95
2023-04-01T00:51:32.534Z,13.23
2023-04-01T00:54:04.778Z,15.85
2023-04-01T00:56:40.676Z,13.63
2023-04-01T00:59:16.405Z,12.77
2023-04-01T01:01:45.533Z,12.35
2023-04-01T01:04:26.665Z,14.82
2023-04-01T01:07:14.316Z,13.32
2023-04-01T01:09:55.433Z,15.57
2023-04-01T01:12:31.083Z,13.70
2023-04-01T01:15:13.018Z,13.77
2023-04-01T01:17:55.610Z,14.55
2023-04-01T01:20:59.075Z,15.73
2023-04-01T01:24:24.847Z,14.27
2023-04-01T01:27:05.697Z,12.52
2023-04-01T01:30:11.509Z,14.60
2023-04-01T01:33:31.471Z,15.25
2023-04-01T01:36:07.107Z,16.73
2023-04-01T01:38:38.638Z,15.65
2023-04-01T01:41:12.145Z,14.02
2023-04-01T01:43:46.730Z,17.02
2023-04-01T01:46:22.674Z,18.70
2023-04-01T01:48:54.044Z,16.00
2023-04-01T01:51:25.856Z,16.15
2023-04-01T01:53:54.850Z,18.08
2023-04-01T01:56:31.364Z,17.45
2023-04-01T01:59:05.804Z,17.85
2023-04-01T02:01:41.847Z,18.27
2023-04-01T02:04:17.997Z,18.85
2023-04-01T02:06:58.174Z,18.33
2023-04-01T02:09:27.248Z,17.77
2023-04-01T02:12:01.900Z,17.42
2023-04-01T02:14:43.819Z,19.55
2023-04-01T02:17:18.109Z,15.48
2023-04-01T02:19:55.832Z,19.33
2023-04-01T02:22:33.659Z,19.40
2023-04-01T02:25:08.201Z,17.17
2023-04-01T02:27:38.237Z,17.77
2023-04-01T02:30:09.379Z,19.17
2023-04-01T02:32:41.307Z,20.13
2023-04-01T02:35:13.736Z,20.83
2023-04-01T02:37:46.266Z,17.42
2023-04-01T02:40:17.913Z,17.08
2023-04-01T02:42:48.061Z,16.17
2023-04-01T02:45:17.192Z,19.27
2023-04-01T02:47:46.249Z,18.13
2023-04-01T02:50:15.330Z,18.88
2023-04-01T02:52:45.986Z,19.83
2023-04-01T02:55:15.540Z,20.20
2023-04-01T02:57:44.584Z,17.10
2023-04-01T03:00:15.564Z,17.92
2023-04-01T03:02:45.358Z,18.60
2023-04-01T03:05:14.272Z,18.15
2023-04-01T03:07:43.372Z,17.70
2023-04-01T03:10:13.806Z,17.17
2023-04-01T03:12:43.236Z,18.67
2023-04-01T03:15:15.217Z,19.15
2023-04-01T03:17:45.558Z,18.88
2023-04-01T03:20:15.994Z,18.75
2023-04-01T03:22:45.169Z,18.33
2023-04-01T03:25:15.618Z,21.55
2023-04-01T03:27:44.638Z,17.73
2023-04-01T03:30:13.863Z,19.08
2023-04-01T03:32:51.647Z,18.75
2023-04-01T03:35:21.352Z,21.95
2023-04-01T03:37:50.546Z,17.45
2023-04-01T03:40:21.309Z,19.63
2023-04-01T03:42:51.021Z,18.77
2023-04-01T03:45:20.176Z,17.00
2023-04-01T03:47:49.259Z,17.67
2023-04-01T03:50:18.449Z,17.33
2023-04-01T03:52:47.500Z,16.52
2023-04-01T03:55:16.600Z,17.30
2023-04-01T03:57:47.368Z,16.77
2023-04-01T04:00:21.237Z,16.85
2023-04-01T04:02:56.825Z,15.88
2023-04-01T04:05:32.353Z,17.00
2023-04-01T04:08:01.617Z,15.60
2023-04-01T04:10:30.971Z,14.95
2023-04-01T04:13:01.397Z,16.52
2023-04-01T04:15:33.079Z,15.00
2023-04-01T04:18:02.392Z,14.05
2023-04-01T04:20:31.380Z,15.38
2023-04-01T04:23:02.134Z,15.75
2023-04-01T04:25:31.128Z,13.80
2023-04-01T04:28:01.811Z,15.02
2023-04-01T04:30:30.882Z,14.40
2023-04-01T04:33:00.082Z,12.65
2023-04-01T04:35:30.209Z,12.45
2023-04-01T04:37:59.521Z,12.77
2023-04-01T04:40:28.381Z,13.05
2023-04-01T04:42:57.623Z,12.40
2023-04-01T04:45:27.926Z,15.07
2023-04-01T04:47:59.116Z,13.77
2023-04-01T04:50:28.365Z,14.40
2023-04-01T04:52:57.737Z,11.95
2023-04-01T04:55:26.555Z,12.65
2023-04-01T04:58:16.143Z,13.75
2023-04-01T05:00:48.658Z,11.68
2023-04-01T05:03:28.926Z,12.10
2023-04-01T05:05:57.914Z,12.48
2023-04-01T05:08:27.054Z,12.55
2023-04-01T05:10:55.938Z,10.75
2023-04-01T05:13:25.007Z,10.27
2023-04-01T05:15:57.499Z,10.07
2023-04-01T05:18:26.740Z,10.65
2023-04-01T05:20:57.422Z,11.93
2023-04-01T05:23:26.603Z,10.02
2023-04-01T05:25:55.455Z,10.02
2023-04-01T05:28:24.996Z,10.48
2023-04-01T05:30:56.016Z,11.05
2023-04-01T05:33:27.920Z,10.38
2023-04-01T05:35:57.129Z,10.70
2023-04-01T05:38:26.294Z,8.40
2023-04-01T05:41:01.670Z,11.68
2023-04-01T05:43:31.867Z,9.52
2023-04-01T05:46:09.104Z,9.93
2023-04-01T05:48:43.890Z,12.05
2023-04-01T05:51:15.743Z,11.30
2023-04-01T05:53:45.208Z,10.02
2023-04-01T05:56:15.264Z,11.60
2023-04-01T05:58:55.234Z,10.82
2023-04-01T06:01:27.325Z,12.05
2023-04-01T06:03:56.714Z,12.23
2023-04-01T06:06:30.892Z,14.32
2023-04-01T06:09:17.258Z,12.77
2023-04-01T06:12:34.861Z,13.55
2023-04-01T06:15:22.538Z,16.83
2023-04-01T06:18:37.645Z,16.38
2023-04-01T06:21:31.996Z,17.00
2023-04-01T06:24:30.630Z,17.80
2023-04-01T06:27:14.736Z,16.15
2023-04-01T06:30:04.636Z,17.60
2023-04-01T06:33:02.897Z,17.60
2023-04-01T06:35:55.447Z,16.48
2023-04-01T06:39:17.602Z,17.75
2023-04-01T06:42:22.185Z,19.98
2023-04-01T06:45:07.426Z,19.63
2023-04-01T06:48:22.224Z,20.20
2023-04-01T06:51:26.756Z,19.92
2023-04-01T06:54:20.817Z,20.10
2023-04-01T06:57:26.141Z,18.73
2023-04-01T06:59:59.623Z,21.20
2023-04-01T07:02:41.334Z,21.42
2023-04-01T07:05:16.032Z,22.20
2023-04-01T07:07:50.408Z,20.67
2023-04-01T07:10:29.081Z,21.27
2023-04-01T07:13:29.818Z,24.35
2023-04-01T07:16:14.767Z,21.27
2023-04-01T07:18:52.134Z,22.25
2023-04-01T07:21:35.832Z,23.73
2023-04-01T07:24:21.128Z,22.98
2023-04-01T07:26:59.959Z,21.65
2023-04-01T07:29:33.713Z,20.92
2023-04-01T07:32:33.740Z,21.70
2023-04-01T07:35:24.950Z,21.02
2023-04-01T07:38:17.077Z,22.83
2023-04-01T07:40:57.723Z,24.17
2023-04-01T07:43:52.368Z,22.05
2023-04-01T07:46:55.220Z,21.80
2023-04-01T07:49:40.648Z,24.90
2023-04-01T07:52:21.237Z,21.08
2023-04-01T07:55:07.499Z,22.23
2023-04-01T07:57:46.268Z,21.83
2023-04-01T08:00:24.796Z,21.63
2023-04-01T08:03:36.049Z,21.75
2023-04-01T08:06:19.073Z,21.92
2023-04-01T08:09:02.164Z,24.05
2023-04-01T08:11:59.224Z,22.38
2023-04-01T08:15:04.169Z,21.23
2023-04-01T08:18:10.452Z,21.33
2023-04-01T08:20:49.475Z,23.63
2023-04-01T08:23:23.468Z,20.52
2023-04-01T08:26:01.198Z,19.17
2023-04-01T08:28:43.554Z,20.08
2023-04-01T08:31:21.100Z,19.13
2023-04-01T08:33:55.100Z,22.38
2023-04-01T08:36:33.738Z,21.02
2023-04-01T08:39:23.921Z,18.17
2023-04-01T08:42:34.098Z,18.63
2023-04-01T08:45:28.341Z,18.00
2023-04-01T08:48:59.561Z,14.45
2023-04-01T08:52:22.591Z,14.55
2023-04-01T08:55:29.922Z,13.43
2023-04-01T08:59:08.299Z,12.93
2023-04-01T09:02:42.457Z,13.23
2023-04-01T09:06:07.285Z,14.57
2023-04-01T09:09:02.534Z,14.60
2023-04-01T09:11:58.922Z,17.00
2023-04-01T09:15:10.170Z,15.45
2023-04-01T09:18:20.342Z,16.10
2023-04-01T09:21:21.826Z,12.75
2023-04-01T09:24:41.174Z,9.00
2023-04-01T09:27:27.859Z,7.10
2023-04-01T09:30:44.557Z,7.03
2023-04-01T09:34:18.964Z,7.03
2023-04-01T09:37:22.950Z,6.47
2023-04-01T09:40:19.861Z,5.55
2023-04-01T09:43:24.989Z,4.65
2023-04-01T09:46:20.389Z,4.57
2023-04-01T09:49:33.609Z,5.18
2023-04-01T09:52:26.202Z,5.78
2023-04-01T09:55:19.044Z,5.32
2023-04-01T09:58:43.888Z,5.55
2023-04-01T10:02:28.464Z,7.00
2023-04-01T10:05:44.668Z,5.57
2023-04-01T10:09:19.459Z,4.85
2023-04-01T10:12:36.729Z,5.30
2023-04-01T10:15:39.232Z,5.53
2023-04-01T10:19:02.372Z,6.55
2023-04-01T10:22:26.602Z,6.40
2023-04-01T10:25:35.427Z,5.32
2023-04-01T10:28:53.619Z,4.45
2023-04-01T10:32:59.078Z,4.40
2023-04-01T10:36:26.615Z,5.07
2023-04-01T10:39:47.105Z,4.38
2023-04-01T10:43:29.822Z,16.70
2023-04-01T10:47:13.472Z,5.72
2023-04-01T10:50:24.895Z,7.05
2023-04-01T10:53:40.671Z,5.93
2023-04-01T10:56:41.985Z,3.40
2023-04-01T11:00:27.380Z,2.90
2023-04-01T11:03:55.979Z,6.95
2023-04-01T11:08:06.757Z,10.95
2023-04-01T11:11:28.909Z,7.38
2023-04-01T11:14:45.789Z,7.55
2023-04-01T11:17:59.516Z,10.05
2023-04-01T11:21:09.701Z,8.52
2023-04-01T11:24:05.094Z,8.68
2023-04-01T11:26:59.481Z,11.23
2023-04-01T11:30:14.748Z,9.38
2023-04-01T11:33:00.249Z,11.20
2023-04-01T11:36:08.922Z,10.18
2023-04-01T11:39:21.745Z,8.27
2023-04-01T11:42:30.889Z,9.55
2023-04-01T11:45:38.728Z,10.75
2023-04-01T11:48:38.374Z,10.18
2023-04-01T11:51:38.907Z,9.52
2023-04-01T11:54:29.927Z,7.10
2023-04-01T11:57:37.755Z,5.20
2023-04-01T12:00:35.284Z,8.18
2023-04-01T12:03:32.031Z,6.45
2023-04-01T12:06:10.951Z,5.10
2023-04-01T12:08:55.770Z,6.15
2023-04-01T12:11:37.251Z,5.88
2023-04-01T12:14:20.248Z,6.47
2023-04-01T12:17:11.866Z,6.28
2023-04-01T12:19:53.825Z,6.22
2023-04-01T12:22:51.811Z,7.05
2023-04-01T12:25:51.242Z,6.60
2023-04-01T12:28:32.851Z,7.20
2023-04-01T12:31:25.049Z,7.20
2023-04-01T12:34:31.823Z,5.40
2023-04-01T12:37:15.823Z,5.70
2023-04-01T12:40:04.415Z,5.47
2023-04-01T12:42:59.256Z,5.15
2023-04-01T12:45:34.712Z,5.45
2023-04-01T12:48:33.919Z,6.18
2023-04-01T12:51:39.955Z,6.43
2023-04-01T12:54:54.357Z,6.03
2023-04-01T12:58:08.329Z,7.18
2023-04-01T13:01:09.440Z,6.80
2023-04-01T13:04:08.086Z,6.57
2023-04-01T13:07:20.048Z,5.82
2023-04-01T13:10:03.592Z,6.57
2023-04-01T13:12:58.384Z,6.80
2023-04-01T13:15:37.756Z,6.03
2023-04-01T13:18:24.151Z,6.32
2023-04-01T13:21:07.764Z,8.15
2023-04-01T13:23:58.130Z,7.82
2023-04-01T13:26:39.635Z,8.13
2023-04-01T13:29:18.955Z,8.45
2023-04-01T13:32:08.148Z,7.50
2023-04-01T13:35:01.965Z,6.72
2023-04-01T13:37:51.940Z,5.25
2023-04-01T13:40:42.753Z,4.90
2023-04-01T13:43:24.564Z,4.53
2023-04-01T13:46:19.640Z,3.75
2023-04-01T13:49:30.956Z,3.80
2023-04-01T13:52:33.338Z,4.47
2023-04-01T13:55:43.083Z,3.80
2023-04-01T13:58:48.263Z,2.30
2023-04-01T14:01:28.800Z,3.65
2023-04-01T14:04:50.403Z,3.65
2023-04-01T14:07:49.610Z,3.33
2023-04-01T14:10:30.188Z,2.78
2023-04-01T14:13:09.854Z,2.80
2023-04-01T14:16:28.108Z,4.95
2023-04-01T14:19:17.602Z,3.88
2023-04-01T14:21:54.402Z,3.70
2023-04-01T14:24:52.758Z,3.47
2023-04-01T14:27:44.245Z,3.78
2023-04-01T14:30:53.965Z,5.32
2023-04-01T14:33:40.489Z,5.22
2023-04-01T14:36:38.393Z,3.80
2023-04-01T14:39:36.294Z,4.25
2023-04-01T14:42:26.101Z,4.32
2023-04-01T14:45:38.737Z,7.68
2023-04-01T14:48:25.971Z,3.72
2023-04-01T14:51:05.190Z,4.93
2023-04-01T14:53:42.787Z,4.72
2023-04-01T14:56:11.815Z,3.67
2023-04-01T14:58:47.843Z,4.03
2023-04-01T15:01:43.444Z,4.32
2023-04-01T15:04:51.643Z,2.55
2023-04-01T15:07:52.555Z,3.17
2023-04-01T15:10:49.357Z,3.88
2023-04-01T15:13:38.555Z,3.75
2023-04-01T15:16:25.236Z,4.32
2023-04-01T15:19:14.937Z,4.22
2023-04-01T15:22:21.281Z,5.15
2023-04-01T15:25:08.704Z,4.55
2023-04-01T15:27:47.208Z,3.88
2023-04-01T15:30:36.317Z,5.10
2023-04-01T15:33:53.246Z,6.05
2023-04-01T15:36:41.438Z,4.63
2023-04-01T15:39:19.540Z,4.63
2023-04-01T15:42:14.991Z,5.18
2023-04-01T15:45:09.139Z,5.05
2023-04-01T15:47:44.466Z,4.38
2023-04-01T15:51:01.011Z,3.60
2023-04-01T15:54:40.316Z,4.18
2023-04-01T15:57:27.842Z,4.45
2023-04-01T16:00:23.379Z,3.95
2023-04-01T16:03:11.874Z,4.63
2023-04-01T16:05:57.722Z,3.25
2023-04-01T16:09:02.278Z,4.82
2023-04-01T16:11:46.111Z,4.88
2023-04-01T16:14:33.918Z,4.07
2023-04-01T16:17:24.481Z,4.00
2023-04-01T16:19:58.126Z,3.67
2023-04-01T16:22:36.296Z,3.97
2023-04-01T16:25:30.253Z,5.07
2023-04-01T16:28:21.722Z,5.93
2023-04-01T16:31:01.963Z,4.80
2023-04-01T16:33:47.891Z,5.30
2023-04-01T16:36:30.545Z,4.03
2023-04-01T16:39:24.615Z,4.50
2023-04-01T16:42:19.081Z,5.28
2023-04-01T16:44:57.915Z,4.13
2023-04-01T16:47:34.289Z,5.38
2023-04-01T16:50:17.482Z,4.22
2023-04-01T16:53:02.737Z,6.07
2023-04-01T16:55:51.013Z,5.40
2023-04-01T16:58:29.505Z,5.22
2023-04-01T17:01:07.994Z,4.63
2023-04-01T17:03:44.644Z,3.15
2023-04-01T17:06:32.021Z,2.92
2023-04-01T17:09:35.454Z,3.08
2023-04-01T17:12:16.599Z,3.78
2023-04-01T17:14:56.730Z,4.53
2023-04-01T17:17:47.856Z,5.55
2023-04-01T17:20:41.753Z,5.63
2023-04-01T17:23:23.462Z,7.22
2023-04-01T17:26:22.895Z,7.22
2023-04-01T17:28:59.494Z,5.18
2023-04-01T17:31:48.742Z,6.28
2023-04-01T17:34:56.006Z,6.15
2023-04-01T17:37:43.864Z,5.55
2023-04-01T17:40:34.125Z,5.00
2023-04-01T17:43:18.778Z,5.30
2023-04-01T17:45:56.539Z,6.05
2023-04-01T17:48:43.951Z,7.07
2023-04-01T17:51:33.245Z,7.05
2023-04-01T17:54:23.438Z,5.80
2023-04-01T17:57:16.528Z,6.68
2023-04-01T18:00:02.469Z,6.00
2023-04-01T18:02:54.476Z,6.68
2023-04-01T18:06:02.554Z,7.05
2023-04-01T18:09:01.932Z,6.55
2023-04-01T18:11:46.667Z,5.72
2023-04-01T18:14:45.120Z,6.28
2023-04-01T18:17:27.744Z,5.43
2023-04-01T18:20:32.488Z,6.18
2023-04-01T18:23:12.385Z,6.95
2023-04-01T18:25:49.146Z,8.85
2023-04-01T18:28:28.635Z,6.30
2023-04-01T18:31:06.933Z,7.82
2023-04-01T18:33:50.213Z,7.80
2023-04-01T18:36:28.723Z,10.68
2023-04-01T18:39:06.869Z,11.13
2023-04-01T18:41:50.915Z,6.88
2023-04-01T18:44:38.931Z,7.05
2023-04-01T18:47:27.706Z,7.38
2023-04-01T18:50:04.054Z,8.13
2023-04-01T18:52:39.898Z,7.57
2023-04-01T18:55:39.555Z,6.80
2023-04-01T18:58:25.072Z,8.05
2023-04-01T19:01:15.134Z,8.52
2023-04-01T19:03:58.868Z,7.57
2023-04-01T19:06:35.738Z,7.65
2023-04-01T19:09:28.198Z,8.55
2023-04-01T19:12:40.337Z,8.88
2023-04-01T19:15:29.671Z,7.72
2023-04-01T19:18:28.864Z,9.35
2023-04-01T19:21:07.531Z,9.93
2023-04-01T19:24:08.531Z,12.93
2023-04-01T19:26:46.261Z,11.75
2023-04-01T19:29:36.266Z,8.85
2023-04-01T19:32:21.049Z,8.75
2023-04-01T19:35:05.704Z,8.60
2023-04-01T19:37:41.486Z,11.40
2023-04-01T19:40:50.505Z,8.73
2023-04-01T19:43:49.893Z,9.60
2023-04-01T19:46:32.307Z,8.13
2023-04-01T19:49:43.219Z,8.15
2023-04-01T19:52:20.349Z,8.65
2023-04-01T19:54:59.529Z,8.27
2023-04-01T19:57:48.197Z,7.82
2023-04-01T20:00:28.506Z,8.73
2023-04-01T20:03:20.834Z,7.55
2023-04-01T20:06:09.088Z,6.95
2023-04-01T20:08:47.731Z,8.75
2023-04-01T20:11:32.853Z,7.05
2023-04-01T20:14:17.997Z,6.72
2023-04-01T20:17:01.361Z,7.20
2023-04-01T20:19:41.229Z,8.15
2023-04-01T20:22:31.844Z,7.05
2023-04-01T20:25:08.882Z,8.10
2023-04-01T20:27:47.610Z,7.85
2023-04-01T20:30:47.479Z,8.25
2023-04-01T20:33:55.970Z,7.80
2023-04-01T20:36:37.193Z,7.75
2023-04-01T20:39:42.093Z,7.63
2023-04-01T20:42:36.407Z,8.40
2023-04-01T20:45:33.614Z,7.03
2023-04-01T20:49:07.222Z,6.57
2023-04-01T20:51:41.830Z,7.82
2023-04-01T20:54:35.773Z,7.85
2023-04-01T20:57:13.692Z,6.65
2023-04-01T21:00:18.247Z,6.55
2023-04-01T21:03:08.246Z,6.88
2023-04-01T21:06:12.497Z,7.20
2023-04-01T21:09:11.259Z,7.53
2023-04-01T21:11:53.843Z,7.10
2023-04-01T21:14:53.783Z,6.68
2023-04-01T21:17:41.652Z,6.78
2023-04-01T21:20:49.177Z,6.75
2023-04-01T21:23:59.290Z,7.63
2023-04-01T21:26:48.255Z,6.82
2023-04-01T21:29:55.348Z,5.32
2023-04-01T21:32:48.734Z,7.72
2023-04-01T21:35:33.574Z,6.40
2023-04-01T21:38:32.128Z,8.25
2023-04-01T21:41:34.012Z,6.40
2023-04-01T21:44:50.887Z,5.95
2023-04-01T21:48:21.175Z,7.80
2023-04-01T21:51:43.647Z,6.22
2023-04-01T21:55:24.064Z,6.85
2023-04-01T21:59:14.799Z,7.03
2023-04-01T22:02:16.649Z,7.18
2023-04-01T22:05:00.170Z,5.45
2023-04-01T22:07:39.688Z,6.70
2023-04-01T22:10:28.351Z,5.53
2023-04-01T22:13:09.345Z,5.32
2023-04-01T22:16:03.131Z,6.75
2023-04-01T22:18:38.185Z,6.47
2023-04-01T22:21:22.214Z,6.70
2023-04-01T22:24:02.593Z,7.00
2023-04-01T22:26:40.115Z,8.55
2023-04-01T22:29:19.471Z,6.65
2023-04-01T22:31:56.165Z,5.78
2023-04-01T22:34:39.895Z,6.35
2023-04-01T22:37:19.141Z,6.13
2023-04-01T22:40:12.932Z,6.75
2023-04-01T22:42:46.705Z,5.95
2023-04-01T22:45:55.604Z,7.57
